createdAt,value
2017-07-23T00:02:21.892Z,99701.64
2017-07-23T00:04:49.580Z,99695.30
2017-07-23T00:07:17.196Z,99691.52
2017-07-23T00:09:44.810Z,99697.55
2017-07-23T00:12:12.470Z,99694.41
2017-07-23T00:14:40.083Z,99688.30
2017-07-23T00:17:07.699Z,99686.68
2017-07-23T00:19:35.351Z,99682.16
2017-07-23T00:22:02.941Z,99679.77
2017-07-23T00:24:30.542Z,99675.66
2017-07-23T00:26:58.184Z,99678.96
2017-07-23T00:29:25.796Z,99675.69
2017-07-23T00:31:53.385Z,99677.20
2017-07-23T00:34:21.053Z,99683.59
2017-07-23T00:36:48.816Z,99678.55
2017-07-23T00:39:16.458Z,99674.29
2017-07-23T00:41:44.131Z,99677.83
2017-07-23T00:44:11.747Z,99674.52
2017-07-23T00:46:39.368Z,99672.60
2017-07-23T00:49:07.055Z,99674.58
2017-07-23T00:51:34.645Z,99674.13
2017-07-23T00:54:02.249Z,99677.36
2017-07-23T00:56:29.912Z,99671.70
2017-07-23T00:58:57.497Z,99669.16
2017-07-23T01:01:25.114Z,99676.02
2017-07-23T01:03:53.132Z,99670.16
2017-07-23T01:06:20.741Z,99666.80
2017-07-23T01:08:48.360Z,99665.47
2017-07-23T01:11:16.011Z,99659.21
2017-07-23T01:13:43.620Z,99658.64
2017-07-23T01:16:11.239Z,99659.59
2017-07-23T01:18:38.891Z,99662.45
2017-07-23T01:21:06.495Z,99664.52
2017-07-23T01:23:34.103Z,99654.67
2017-07-23T01:26:01.748Z,99656.98
2017-07-23T01:28:29.345Z,99652.93
2017-07-23T01:30:56.934Z,99666.92
2017-07-23T01:33:24.585Z,99666.37
2017-07-23T01:35:52.207Z,99660.95
2017-07-23T01:38:19.835Z,99666.04
2017-07-23T01:40:47.509Z,99662.74
2017-07-23T01:43:15.114Z,99673.68
2017-07-23T01:45:42.743Z,99672.72
2017-07-23T01:48:10.410Z,99672.03
2017-07-23T01:50:38.050Z,99676.66
2017-07-23T01:53:05.682Z,99680.91
2017-07-23T01:55:33.371Z,99687.33
2017-07-23T01:58:00.992Z,99695.50
2017-07-23T02:00:28.616Z,99699.45
2017-07-23T02:02:56.282Z,99695.38
2017-07-23T02:05:23.900Z,99698.34
2017-07-23T02:07:51.527Z,99696.31
2017-07-23T02:10:19.209Z,99696.72
2017-07-23T02:12:46.835Z,99706.35
2017-07-23T02:15:14.456Z,99707.57
2017-07-23T02:17:42.147Z,99707.98
2017-07-23T02:20:09.762Z,99716.37
2017-07-23T02:22:37.388Z,99712.17
2017-07-23T02:25:05.076Z,99715.59
2017-07-23T02:27:32.697Z,99723.19
2017-07-23T02:30:00.327Z,99729.20
2017-07-23T02:32:28.018Z,99723.08
2017-07-23T02:34:55.642Z,99713.05
2017-07-23T02:37:23.261Z,99713.86
2017-07-23T02:39:50.916Z,99724.31
2017-07-23T02:42:18.533Z,99725.00
2017-07-23T02:44:46.163Z,99729.48
2017-07-23T02:47:13.841Z,99741.05
2017-07-23T02:49:41.458Z,99751.64
2017-07-23T02:52:09.090Z,99755.86
2017-07-23T02:54:36.763Z,99770.28
2017-07-23T02:57:04.379Z,99757.90
2017-07-23T02:59:31.986Z,99755.43
2017-07-23T03:01:59.653Z,99753.12
2017-07-23T03:04:27.261Z,99755.16
2017-07-23T03:06:54.894Z,99763.06
2017-07-23T03:09:22.569Z,99764.16
2017-07-23T03:11:50.350Z,99757.20
2017-07-23T03:14:17.958Z,99758.17
2017-07-23T03:16:45.642Z,99762.92
2017-07-23T03:19:13.273Z,99758.58
2017-07-23T03:21:40.905Z,99751.92
2017-07-23T03:24:08.583Z,99746.45
2017-07-23T03:26:36.207Z,99751.98
2017-07-23T03:29:03.820Z,99757.19
2017-07-23T03:31:31.490Z,99766.16
2017-07-23T03:33:59.102Z,99771.08
2017-07-23T03:36:26.723Z,99764.11
2017-07-23T03:38:54.387Z,99753.69
2017-07-23T03:41:21.999Z,99757.83
2017-07-23T03:43:49.620Z,99767.83
2017-07-23T03:46:17.316Z,99756.87
2017-07-23T03:48:44.935Z,99749.06
2017-07-23T03:51:12.554Z,99753.03
2017-07-23T03:53:40.215Z,99752.52
2017-07-23T03:56:07.831Z,99743.98
2017-07-23T03:58:35.441Z,99748.19
2017-07-23T04:01:03.107Z,99750.98
2017-07-23T04:03:30.727Z,99748.58
2017-07-23T04:05:58.345Z,99755.95
2017-07-23T04:08:26.019Z,99759.97
2017-07-23T04:10:53.703Z,99755.44
2017-07-23T04:13:21.319Z,99757.15
2017-07-23T04:15:48.995Z,99748.10
2017-07-23T04:18:16.624Z,99757.87
2017-07-23T04:20:44.256Z,99745.62
2017-07-23T04:23:11.922Z,99746.83
2017-07-23T04:25:39.556Z,99747.34
2017-07-23T04:28:07.170Z,99744.30
2017-07-23T04:30:34.873Z,99744.55
2017-07-23T04:33:02.505Z,99739.65
2017-07-23T04:35:30.131Z,99741.17
2017-07-23T04:37:58.097Z,99735.42
2017-07-23T04:40:25.982Z,99742.64
2017-07-23T04:42:53.906Z,99742.16
2017-07-23T04:45:21.773Z,99744.71
2017-07-23T04:47:49.398Z,99741.05
2017-07-23T04:50:17.209Z,99743.14
2017-07-23T04:52:44.950Z,99735.08
2017-07-23T04:55:12.864Z,99734.46
2017-07-23T04:57:40.691Z,99730.34
2017-07-23T05:00:08.703Z,99728.38
2017-07-23T05:02:36.394Z,99727.61
2017-07-23T05:05:04.112Z,99723.58
2017-07-23T05:07:31.927Z,99722.33
2017-07-23T05:09:59.747Z,99715.50
2017-07-23T05:12:27.614Z,99716.22
2017-07-23T05:14:55.292Z,99723.38
2017-07-23T05:17:22.919Z,99716.40
2017-07-23T05:19:50.547Z,99721.65
2017-07-23T05:22:18.233Z,99716.87
2017-07-23T05:24:45.865Z,99717.71
2017-07-23T05:27:13.897Z,99716.67
2017-07-23T05:29:41.577Z,99719.72
2017-07-23T05:32:09.186Z,99716.73
2017-07-23T05:34:36.793Z,99720.58
2017-07-23T05:37:04.497Z,99711.76
2017-07-23T05:39:32.127Z,99719.72
2017-07-23T05:41:59.746Z,99709.84
2017-07-23T05:44:27.408Z,99713.36
2017-07-23T05:46:55.010Z,99715.22
2017-07-23T05:49:22.636Z,99707.61
2017-07-23T05:51:50.337Z,99708.47
2017-07-23T05:54:17.947Z,99704.87
2017-07-23T05:56:45.563Z,99701.55
2017-07-23T05:59:13.353Z,99701.52
2017-07-23T06:01:40.972Z,99704.14
2017-07-23T06:04:08.604Z,99698.88
2017-07-23T06:06:36.280Z,99697.08
2017-07-23T06:09:03.998Z,99692.70
2017-07-23T06:11:31.647Z,99687.39
2017-07-23T06:13:59.323Z,99687.64
2017-07-23T06:16:26.917Z,99684.66
2017-07-23T06:18:54.561Z,99693.52
2017-07-23T06:21:22.222Z,99694.61
2017-07-23T06:23:49.841Z,99687.85
2017-07-23T06:26:17.456Z,99686.10
2017-07-23T06:28:45.147Z,99693.78
2017-07-23T06:31:12.766Z,99689.62
2017-07-23T06:33:40.387Z,99692.11
2017-07-23T06:36:08.075Z,99690.38
2017-07-23T06:38:35.689Z,99689.61
2017-07-23T06:41:03.311Z,99691.30
2017-07-23T06:43:30.994Z,99682.04
2017-07-23T06:45:58.614Z,99672.28
2017-07-23T06:48:26.458Z,99680.34
2017-07-23T06:50:54.528Z,99679.64
2017-07-23T06:53:22.157Z,99674.95
2017-07-23T06:55:49.765Z,99671.22
2017-07-23T06:58:17.425Z,99666.61
2017-07-23T07:00:45.035Z,99666.37
2017-07-23T07:03:12.651Z,99674.82
2017-07-23T07:05:41.821Z,99665.35
2017-07-23T07:08:09.538Z,99668.33
2017-07-23T07:10:37.173Z,99663.43
2017-07-23T07:13:04.834Z,99660.45
2017-07-23T07:15:32.445Z,99661.44
2017-07-23T07:18:00.067Z,99656.53
2017-07-23T07:20:27.773Z,99663.50
2017-07-23T07:22:55.452Z,99656.22
2017-07-23T07:25:23.065Z,99654.25
2017-07-23T07:27:50.748Z,99650.18
2017-07-23T07:30:18.361Z,99650.38
2017-07-23T07:32:45.958Z,99649.09
2017-07-23T07:35:13.636Z,99648.60
2017-07-23T07:37:41.280Z,99654.34
2017-07-23T07:40:08.911Z,99650.87
2017-07-23T07:42:36.599Z,99651.30
2017-07-23T07:45:04.225Z,99652.06
2017-07-23T07:47:31.853Z,99647.86
2017-07-23T07:49:59.767Z,99651.06
2017-07-23T07:52:27.376Z,99643.44
2017-07-23T07:54:54.999Z,99648.14
2017-07-23T07:57:22.688Z,99651.73
2017-07-23T07:59:50.349Z,99645.92
2017-07-23T08:02:17.973Z,99643.61
2017-07-23T08:04:45.767Z,99642.05
2017-07-23T08:07:13.408Z,99629.24
2017-07-23T08:09:41.006Z,99637.53
2017-07-23T08:12:08.664Z,99634.66
2017-07-23T08:14:36.523Z,99630.00
2017-07-23T08:17:04.514Z,99628.02
2017-07-23T08:19:32.413Z,99633.20
2017-07-23T08:22:00.124Z,99633.17
2017-07-23T08:24:28.090Z,99642.47
2017-07-23T08:26:55.910Z,99636.39
2017-07-23T08:29:23.881Z,99636.00
2017-07-23T08:31:51.818Z,99634.47
2017-07-23T08:34:19.561Z,99629.95
2017-07-23T08:36:47.480Z,99631.52
2017-07-23T08:39:15.221Z,99627.23
2017-07-23T08:41:43.015Z,99629.50
2017-07-23T08:44:10.728Z,99629.27
2017-07-23T08:46:38.551Z,99632.22
2017-07-23T08:49:06.218Z,99627.48
2017-07-23T08:51:33.829Z,99632.16
2017-07-23T08:54:01.439Z,99629.02
2017-07-23T08:56:29.137Z,99635.35
2017-07-23T08:58:56.748Z,99632.09
2017-07-23T09:01:24.380Z,99628.66
2017-07-23T09:03:52.063Z,99624.92
2017-07-23T09:06:19.676Z,99622.02
2017-07-23T09:08:47.324Z,99623.12
2017-07-23T09:11:15.003Z,99617.22
2017-07-23T09:13:42.622Z,99620.02
2017-07-23T09:16:10.231Z,99613.72
2017-07-23T09:18:37.922Z,99604.47
2017-07-23T09:21:05.531Z,99602.94
2017-07-23T09:23:33.165Z,99602.62
2017-07-23T09:26:00.826Z,99606.01
2017-07-23T09:28:28.459Z,99600.11
2017-07-23T09:30:56.076Z,99599.02
2017-07-23T09:33:24.116Z,99597.83
2017-07-23T09:35:51.734Z,99588.41
2017-07-23T09:38:19.340Z,99590.35
2017-07-23T09:40:47.098Z,99595.02
2017-07-23T09:43:14.692Z,99591.11
2017-07-23T09:45:42.284Z,99590.25
2017-07-23T09:48:09.940Z,99584.04
2017-07-23T09:50:37.542Z,99583.17
2017-07-23T09:53:05.138Z,99583.43
2017-07-23T09:55:32.798Z,99583.84
2017-07-23T09:58:00.408Z,99579.55
2017-07-23T10:00:28.051Z,99571.56
2017-07-23T10:02:55.695Z,99576.00
2017-07-23T10:05:23.321Z,99575.02
2017-07-23T10:07:50.952Z,99568.30
2017-07-23T10:10:18.596Z,99563.59
2017-07-23T10:12:46.200Z,99562.64
2017-07-23T10:15:13.807Z,99569.49
2017-07-23T10:17:41.632Z,99564.53
2017-07-23T10:20:09.217Z,99556.96
2017-07-23T10:22:36.815Z,99562.34
2017-07-23T10:25:04.456Z,99556.36
2017-07-23T10:27:32.051Z,99560.67
2017-07-23T10:29:59.638Z,99561.98
2017-07-23T10:32:27.399Z,99555.83
2017-07-23T10:34:55.262Z,99557.80
2017-07-23T10:37:22.883Z,99547.66
2017-07-23T10:39:50.553Z,99553.15
2017-07-23T10:42:18.147Z,99548.27
2017-07-23T10:44:45.742Z,99548.34
2017-07-23T10:47:13.394Z,99545.91
2017-07-23T10:49:40.998Z,99545.98
2017-07-23T10:52:08.609Z,99539.38
2017-07-23T10:54:36.265Z,99540.27
2017-07-23T10:57:03.864Z,99542.48
2017-07-23T10:59:31.481Z,99537.53
2017-07-23T11:01:59.135Z,99535.84
2017-07-23T11:04:26.724Z,99530.59
2017-07-23T11:06:54.323Z,99524.14
2017-07-23T11:09:22.002Z,99522.06
2017-07-23T11:11:49.588Z,99518.97
2017-07-23T11:14:17.195Z,99517.46
2017-07-23T11:16:44.861Z,99511.23
2017-07-23T11:19:12.458Z,99506.24
2017-07-23T11:21:40.037Z,99512.13
2017-07-23T11:24:07.704Z,99510.28
2017-07-23T11:26:35.373Z,99498.47
2017-07-23T11:29:03.074Z,99502.01
2017-07-23T11:31:30.717Z,99498.52
2017-07-23T11:33:58.331Z,99500.19
2017-07-23T11:36:25.990Z,99499.73
2017-07-23T11:38:53.663Z,99494.52
2017-07-23T11:41:21.313Z,99497.34
2017-07-23T11:43:48.929Z,99486.67
2017-07-23T11:46:16.620Z,99490.44
2017-07-23T11:48:44.301Z,99487.83
2017-07-23T11:51:11.918Z,99486.35
2017-07-23T11:53:39.604Z,99489.52
2017-07-23T11:56:07.275Z,99481.02
2017-07-23T11:58:34.896Z,99479.08
2017-07-23T12:01:02.536Z,99484.41
2017-07-23T12:03:30.130Z,99480.05
2017-07-23T12:05:57.731Z,99472.77
2017-07-23T12:08:25.392Z,99475.31
2017-07-23T12:10:53.001Z,99468.97
2017-07-23T12:13:20.615Z,99468.28
2017-07-23T12:15:48.256Z,99468.67
2017-07-23T12:18:15.879Z,99466.20
2017-07-23T12:20:43.498Z,99463.20
2017-07-23T12:23:11.164Z,99465.09
2017-07-23T12:25:38.756Z,99454.34
2017-07-23T12:28:06.392Z,99456.92
2017-07-23T12:30:34.048Z,99461.56
2017-07-23T12:33:01.727Z,99454.28
2017-07-23T12:35:29.383Z,99450.03
2017-07-23T12:37:57.119Z,99447.45
2017-07-23T12:40:24.737Z,99439.13
2017-07-23T12:42:52.448Z,99443.47
2017-07-23T12:45:20.107Z,99439.00
2017-07-23T12:47:47.729Z,99438.60
2017-07-23T12:50:16.067Z,99440.83
2017-07-23T12:52:43.743Z,99430.34
2017-07-23T12:55:11.350Z,99436.67
2017-07-23T12:57:38.947Z,99421.73
2017-07-23T13:00:06.715Z,99416.79
2017-07-23T13:02:34.369Z,99417.55
2017-07-23T13:05:02.027Z,99419.16
2017-07-23T13:07:29.708Z,99418.56
2017-07-23T13:09:57.327Z,99411.64
2017-07-23T13:12:24.927Z,99411.50
2017-07-23T13:14:52.651Z,99410.16
2017-07-23T13:17:20.246Z,99406.43
2017-07-23T13:19:47.851Z,99405.94
2017-07-23T13:22:15.492Z,99396.05
2017-07-23T13:24:43.178Z,99395.84
2017-07-23T13:27:10.782Z,99398.68
2017-07-23T13:29:38.478Z,99390.91
2017-07-23T13:32:06.073Z,99388.91
2017-07-23T13:34:33.674Z,99381.27
2017-07-23T13:37:01.345Z,99389.72
2017-07-23T13:39:29.004Z,99391.31
2017-07-23T13:41:56.615Z,99379.45
2017-07-23T13:44:24.282Z,99383.40
2017-07-23T13:46:51.898Z,99376.83
2017-07-23T13:49:19.515Z,99374.91
2017-07-23T13:51:47.163Z,99372.34
2017-07-23T13:54:14.774Z,99367.32
2017-07-23T13:56:42.382Z,99366.92
2017-07-23T13:59:10.054Z,99360.13
2017-07-23T14:01:37.645Z,99360.55
2017-07-23T14:04:05.246Z,99360.94
2017-07-23T14:06:32.928Z,99349.95
2017-07-23T14:09:00.529Z,99357.17
2017-07-23T14:11:28.322Z,99351.98
2017-07-23T14:13:55.937Z,99355.64
2017-07-23T14:16:23.538Z,99355.42
2017-07-23T14:18:51.206Z,99351.26
2017-07-23T14:21:18.824Z,99349.47
2017-07-23T14:23:46.452Z,99356.84
2017-07-23T14:26:14.094Z,99350.44
2017-07-23T14:28:41.725Z,99344.66
2017-07-23T14:31:10.236Z,99343.23
2017-07-23T14:33:37.896Z,99337.86
2017-07-23T14:36:05.512Z,99335.31
2017-07-23T14:38:33.122Z,99330.13
2017-07-23T14:41:00.929Z,99333.13
2017-07-23T14:43:28.523Z,99330.16
2017-07-23T14:45:56.138Z,99330.97
2017-07-23T14:48:23.796Z,99328.79
2017-07-23T14:50:51.408Z,99337.78
2017-07-23T14:53:19.025Z,99325.81
2017-07-23T14:55:46.707Z,99332.22
2017-07-23T14:58:14.309Z,99329.38
2017-07-23T15:00:41.908Z,99331.20
2017-07-23T15:03:09.565Z,99329.80
2017-07-23T15:05:37.165Z,99331.41
2017-07-23T15:08:04.763Z,99330.22
2017-07-23T15:10:32.432Z,99330.01
2017-07-23T15:13:00.021Z,99333.79
2017-07-23T15:15:27.618Z,99329.20
2017-07-23T15:17:55.276Z,99338.98
2017-07-23T15:20:22.870Z,99329.42
2017-07-23T15:22:50.475Z,99338.17
2017-07-23T15:25:18.134Z,99338.17
2017-07-23T15:27:45.822Z,99343.36
2017-07-23T15:30:13.409Z,99335.36
2017-07-23T15:32:41.058Z,99334.73
2017-07-23T15:35:08.714Z,99331.92
2017-07-23T15:37:36.328Z,99334.50
2017-07-23T15:40:03.982Z,99337.08
2017-07-23T15:42:31.698Z,99331.42
2017-07-23T15:44:59.301Z,99322.64
2017-07-23T15:47:26.950Z,99320.03
2017-07-23T15:49:54.577Z,99323.39
2017-07-23T15:52:22.186Z,99325.95
2017-07-23T15:54:49.890Z,99328.52
2017-07-23T15:57:17.511Z,99326.92
2017-07-23T15:59:45.142Z,99330.50
2017-07-23T16:02:12.839Z,99332.26
2017-07-23T16:04:40.458Z,99327.19
2017-07-23T16:07:08.080Z,99329.94
2017-07-23T16:09:35.738Z,99330.02
2017-07-23T16:12:03.350Z,99331.64
2017-07-23T16:14:30.963Z,99333.27
2017-07-23T16:16:58.652Z,99338.25
2017-07-23T16:19:26.286Z,99335.91
2017-07-23T16:21:53.950Z,99340.69
2017-07-23T16:24:21.631Z,99338.75
2017-07-23T16:26:49.247Z,99339.56
2017-07-23T16:29:16.911Z,99339.94
2017-07-23T16:31:44.573Z,99340.56
2017-07-23T16:34:12.187Z,99343.02
2017-07-23T16:36:39.827Z,99334.20
2017-07-23T16:39:07.528Z,99348.61
2017-07-23T16:41:35.143Z,99345.19
2017-07-23T16:44:02.789Z,99341.59
2017-07-23T16:46:30.445Z,99344.50
2017-07-23T16:48:58.077Z,99348.08
2017-07-23T16:51:25.695Z,99350.48
2017-07-23T16:53:53.375Z,99350.45
2017-07-23T16:56:20.996Z,99347.88
2017-07-23T16:58:48.630Z,99356.29
2017-07-23T17:01:16.284Z,99362.05
2017-07-23T17:03:43.889Z,99357.62
2017-07-23T17:06:11.503Z,99359.91
2017-07-23T17:08:39.168Z,99355.30
2017-07-23T17:11:06.793Z,99351.73
2017-07-23T17:13:34.414Z,99355.55
2017-07-23T17:16:02.078Z,99354.56
2017-07-23T17:18:29.702Z,99352.52
2017-07-23T17:20:57.323Z,99357.88
2017-07-23T17:23:25.014Z,99351.77
2017-07-23T17:25:52.679Z,99349.50
2017-07-23T17:28:20.317Z,99346.66
2017-07-23T17:30:48.037Z,99343.24
2017-07-23T17:33:15.664Z,99355.77
2017-07-23T17:35:43.290Z,99348.97
2017-07-23T17:38:10.971Z,99350.48
2017-07-23T17:40:38.591Z,99355.48
2017-07-23T17:43:06.235Z,99350.98
2017-07-23T17:45:33.923Z,99351.96
2017-07-23T17:48:01.612Z,99349.45
2017-07-23T17:50:29.238Z,99359.66
2017-07-23T17:52:56.914Z,99362.95
2017-07-23T17:55:24.525Z,99361.60
2017-07-23T17:57:52.173Z,99367.66
2017-07-23T18:00:19.851Z,99362.30
2017-07-23T18:02:47.574Z,99366.61
2017-07-23T18:05:15.233Z,99366.58
2017-07-23T18:07:42.975Z,99370.59
2017-07-23T18:10:10.680Z,99369.31
2017-07-23T18:12:38.322Z,99374.50
2017-07-23T18:15:06.080Z,99372.20
2017-07-23T18:17:33.755Z,99372.20
2017-07-23T18:20:01.640Z,99371.42
2017-07-23T18:22:29.451Z,99370.04
2017-07-23T18:24:57.179Z,99381.33
2017-07-23T18:27:24.961Z,99368.73
2017-07-23T18:29:52.868Z,99379.17
2017-07-23T18:32:20.802Z,99389.14
2017-07-23T18:34:48.722Z,99396.30
2017-07-23T18:37:16.648Z,99403.45
2017-07-23T18:39:44.684Z,99416.48
2017-07-23T18:42:12.464Z,99411.99
2017-07-23T18:44:40.537Z,99415.97
2017-07-23T18:47:08.573Z,99424.46
2017-07-23T18:49:36.497Z,99425.82
2017-07-23T18:52:04.532Z,99429.30
2017-07-23T18:54:32.627Z,99426.32
2017-07-23T18:57:00.472Z,99434.13
2017-07-23T18:59:28.573Z,99433.01
2017-07-23T19:01:56.532Z,99429.39
2017-07-23T19:04:24.560Z,99432.61
2017-07-23T19:06:52.520Z,99437.13
2017-07-23T19:09:20.590Z,99436.63
2017-07-23T19:11:48.809Z,99429.94
2017-07-23T19:14:16.992Z,99426.88
2017-07-23T19:16:45.031Z,99427.53
2017-07-23T19:19:12.976Z,99435.83
2017-07-23T19:21:40.966Z,99442.94
2017-07-23T19:24:09.024Z,99449.16
2017-07-23T19:26:37.078Z,99451.89
2017-07-23T19:29:05.059Z,99466.81
2017-07-23T19:31:33.921Z,99466.00
2017-07-23T19:34:01.742Z,99465.92
2017-07-23T19:36:29.740Z,99460.96
2017-07-23T19:38:57.600Z,99451.52
2017-07-23T19:41:25.522Z,99454.75
2017-07-23T19:43:53.404Z,99466.04
2017-07-23T19:46:21.267Z,99464.81
2017-07-23T19:48:49.003Z,99466.31
2017-07-23T19:51:16.803Z,99467.75
2017-07-23T19:53:44.566Z,99458.45
2017-07-23T19:56:12.223Z,99470.41
2017-07-23T19:58:40.052Z,99464.70
2017-07-23T20:01:07.671Z,99465.35
2017-07-23T20:03:35.369Z,99459.03
2017-07-23T20:06:03.042Z,99464.62
2017-07-23T20:08:30.712Z,99468.55
2017-07-23T20:10:58.470Z,99469.16
2017-07-23T20:13:26.145Z,99466.56
2017-07-23T20:15:53.888Z,99463.33
2017-07-23T20:18:21.602Z,99460.27
2017-07-23T20:20:49.305Z,99451.09
2017-07-23T20:23:16.940Z,99453.22
2017-07-23T20:25:44.573Z,99456.12
2017-07-23T20:28:12.315Z,99456.23
2017-07-23T20:30:39.917Z,99459.59
2017-07-23T20:33:07.550Z,99452.48
2017-07-23T20:35:35.225Z,99459.87
2017-07-23T20:38:02.878Z,99463.31
2017-07-23T20:40:30.512Z,99460.59
2017-07-23T20:42:58.225Z,99458.17
2017-07-23T20:45:25.854Z,99467.25
2017-07-23T20:47:53.466Z,99465.56
2017-07-23T20:50:21.167Z,99473.42
2017-07-23T20:52:48.774Z,99472.84
2017-07-23T20:55:16.375Z,99473.81
2017-07-23T20:57:44.068Z,99477.88
2017-07-23T21:00:11.693Z,99476.67
2017-07-23T21:02:39.307Z,99481.70
2017-07-23T21:05:07.025Z,99483.44
2017-07-23T21:07:34.661Z,99486.81
2017-07-23T21:10:02.269Z,99484.07
2017-07-23T21:12:29.944Z,99481.70
2017-07-23T21:14:57.566Z,99474.77
2017-07-23T21:17:25.178Z,99467.76
2017-07-23T21:19:52.886Z,99476.17
2017-07-23T21:22:20.676Z,99466.70
2017-07-23T21:24:48.305Z,99470.86
2017-07-23T21:27:15.976Z,99466.03
2017-07-23T21:29:43.565Z,99466.55
2017-07-23T21:32:11.172Z,99460.58
2017-07-23T21:34:38.839Z,99466.66
2017-07-23T21:37:06.473Z,99468.78
2017-07-23T21:39:34.089Z,99468.01
2017-07-23T21:42:01.756Z,99470.45
2017-07-23T21:44:29.360Z,99466.91
2017-07-23T21:46:56.989Z,99465.67
2017-07-23T21:49:24.675Z,99467.05
2017-07-23T21:51:52.294Z,99464.73
2017-07-23T21:54:19.920Z,99457.73
2017-07-23T21:56:47.594Z,99465.19
2017-07-23T21:59:15.349Z,99458.28
2017-07-23T22:01:42.951Z,99456.00
2017-07-23T22:04:10.633Z,99457.86
2017-07-23T22:06:38.244Z,99452.95
2017-07-23T22:09:05.840Z,99453.15
2017-07-23T22:11:33.535Z,99450.55
2017-07-23T22:14:01.163Z,99447.70
2017-07-23T22:16:28.802Z,99441.30
2017-07-23T22:18:56.465Z,99437.70
2017-07-23T22:21:24.067Z,99435.17
2017-07-23T22:23:51.689Z,99429.67
2017-07-23T22:26:19.353Z,99425.11
2017-07-23T22:28:46.964Z,99420.56
2017-07-23T22:31:14.576Z,99424.35
2017-07-23T22:33:42.249Z,99415.91
2017-07-23T22:36:09.863Z,99422.09
2017-07-23T22:38:37.465Z,99416.85
2017-07-23T22:41:05.137Z,99423.96
2017-07-23T22:43:32.772Z,99430.80
2017-07-23T22:46:00.379Z,99430.52
2017-07-23T22:48:28.064Z,99422.80
2017-07-23T22:50:55.685Z,99424.09
2017-07-23T22:53:23.287Z,99421.43
2017-07-23T22:55:50.954Z,99415.72
2017-07-23T22:58:18.569Z,99417.83
2017-07-23T23:00:46.183Z,99412.02
2017-07-23T23:03:13.864Z,99410.80
2017-07-23T23:05:41.490Z,99403.77
2017-07-23T23:08:09.102Z,99397.50
2017-07-23T23:10:36.785Z,99394.55
2017-07-23T23:13:04.392Z,99388.50
2017-07-23T23:15:32.076Z,99394.38
2017-07-23T23:17:59.733Z,99382.23
2017-07-23T23:20:27.365Z,99383.94
2017-07-23T23:22:55.022Z,99385.87
2017-07-23T23:25:22.708Z,99382.67
2017-07-23T23:27:50.316Z,99388.09
2017-07-23T23:30:17.925Z,99380.31
2017-07-23T23:32:45.594Z,99386.82
2017-07-23T23:35:13.234Z,99389.39
2017-07-23T23:37:40.861Z,99387.24
2017-07-23T23:40:08.564Z,99383.39
2017-07-23T23:42:36.187Z,99383.26
2017-07-23T23:45:03.835Z,99381.49
2017-07-23T23:47:31.520Z,99381.56
2017-07-23T23:49:59.145Z,99376.97
2017-07-23T23:52:26.761Z,99370.30
2017-07-23T23:54:55.195Z,99361.44
2017-07-23T23:57:22.842Z,99362.36
2017-07-23T23:59:50.476Z,99354.72
